sensor_id;sensor_type;location;lat;lon;timestamp;P1;durP1;ratioP1;P2;durP2;ratioP2
75218;SDS011;63801;49.414;19.474;2022-12-19T00:01:58;376.17;;;107.93;;
75218;SDS011;63801;49.414;19.474;2022-12-19T00:03:59;420.25;;;116.43;;
75218;SDS011;63801;49.414;19.474;2022-12-19T00:06:02;403.05;;;115.35;;
75218;SDS011;63801;49.414;19.474;2022-12-19T00:08:03;425.63;;;111.80;;
75218;SDS011;63801;49.414;19.474;2022-12-19T00:10:05;438.48;;;115.28;;
75218;SDS011;63801;49.414;19.474;2022-12-19T00:12:06;412.40;;;99.95;;
75218;SDS011;63801;49.414;19.474;2022-12-19T00:14:08;396.10;;;88.95;;
75218;SDS011;63801;49.414;19.474;2022-12-19T00:16:11;392.55;;;89.50;;
75218;SDS011;63801;49.414;19.474;2022-12-19T00:18:15;421.58;;;89.75;;
75218;SDS011;63801;49.414;19.474;2022-12-19T00:20:15;412.27;;;80.25;;
75218;SDS011;63801;49.414;19.474;2022-12-19T00:22:16;389.85;;;78.63;;
75218;SDS011;63801;49.414;19.474;2022-12-19T00:24:16;355.65;;;73.05;;
75218;SDS011;63801;49.414;19.474;2022-12-19T00:26:26;405.45;;;84.15;;
75218;SDS011;63801;49.414;19.474;2022-12-19T00:28:29;367.77;;;76.70;;
75218;SDS011;63801;49.414;19.474;2022-12-19T00:30:29;303.52;;;64.78;;
75218;SDS011;63801;49.414;19.474;2022-12-19T00:32:29;246.00;;;61.42;;
75218;SDS011;63801;49.414;19.474;2022-12-19T00:34:29;272.50;;;60.25;;
75218;SDS011;63801;49.414;19.474;2022-12-19T00:36:31;246.23;;;61.70;;
75218;SDS011;63801;49.414;19.474;2022-12-19T00:38:32;274.25;;;70.85;;
75218;SDS011;63801;49.414;19.474;2022-12-19T00:40:33;265.77;;;62.45;;
75218;SDS011;63801;49.414;19.474;2022-12-19T00:42:33;265.20;;;56.05;;
75218;SDS011;63801;49.414;19.474;2022-12-19T00:44:34;264.63;;;54.17;;
75218;SDS011;63801;49.414;19.474;2022-12-19T00:46:34;265.23;;;53.03;;
75218;SDS011;63801;49.414;19.474;2022-12-19T00:48:35;285.52;;;61.22;;
75218;SDS011;63801;49.414;19.474;2022-12-19T00:50:35;331.00;;;66.93;;
75218;SDS011;63801;49.414;19.474;2022-12-19T00:52:36;300.98;;;67.50;;
75218;SDS011;63801;49.414;19.474;2022-12-19T00:54:36;402.98;;;92.70;;
75218;SDS011;63801;49.414;19.474;2022-12-19T00:56:36;428.05;;;99.05;;
75218;SDS011;63801;49.414;19.474;2022-12-19T00:58:37;366.58;;;97.25;;
75218;SDS011;63801;49.414;19.474;2022-12-19T01:00:37;376.65;;;102.72;;
75218;SDS011;63801;49.414;19.474;2022-12-19T01:02:38;335.83;;;92.28;;
75218;SDS011;63801;49.414;19.474;2022-12-19T01:04:38;313.02;;;82.05;;
75218;SDS011;63801;49.414;19.474;2022-12-19T01:06:38;255.48;;;65.85;;
75218;SDS011;63801;49.414;19.474;2022-12-19T01:08:39;256.60;;;66.03;;
75218;SDS011;63801;49.414;19.474;2022-12-19T01:10:43;332.63;;;83.25;;
75218;SDS011;63801;49.414;19.474;2022-12-19T01:12:45;376.80;;;95.45;;
75218;SDS011;63801;49.414;19.474;2022-12-19T01:14:45;385.52;;;101.30;;
75218;SDS011;63801;49.414;19.474;2022-12-19T01:16:45;374.65;;;98.32;;
75218;SDS011;63801;49.414;19.474;2022-12-19T01:18:46;364.52;;;96.93;;
75218;SDS011;63801;49.414;19.474;2022-12-19T01:20:46;362.42;;;106.63;;
75218;SDS011;63801;49.414;19.474;2022-12-19T01:22:46;288.30;;;84.75;;
75218;SDS011;63801;49.414;19.474;2022-12-19T01:24:47;222.32;;;59.08;;
75218;SDS011;63801;49.414;19.474;2022-12-19T01:26:47;270.33;;;75.30;;
75218;SDS011;63801;49.414;19.474;2022-12-19T01:28:47;329.10;;;90.15;;
75218;SDS011;63801;49.414;19.474;2022-12-19T01:30:48;242.43;;;62.58;;
75218;SDS011;63801;49.414;19.474;2022-12-19T01:32:48;239.68;;;64.15;;
75218;SDS011;63801;49.414;19.474;2022-12-19T01:34:48;226.70;;;62.72;;
75218;SDS011;63801;49.414;19.474;2022-12-19T01:36:49;183.13;;;51.78;;
75218;SDS011;63801;49.414;19.474;2022-12-19T01:38:49;168.80;;;46.17;;
75218;SDS011;63801;49.414;19.474;2022-12-19T01:40:50;245.18;;;63.60;;
75218;SDS011;63801;49.414;19.474;2022-12-19T01:47:07;269.13;;;65.47;;
75218;SDS011;63801;49.414;19.474;2022-12-19T01:49:14;227.40;;;63.47;;
75218;SDS011;63801;49.414;19.474;2022-12-19T01:51:21;203.00;;;50.42;;
75218;SDS011;63801;49.414;19.474;2022-12-19T01:53:24;211.55;;;50.92;;
75218;SDS011;63801;49.414;19.474;2022-12-19T01:55:28;161.50;;;44.40;;
75218;SDS011;63801;49.414;19.474;2022-12-19T01:57:28;149.63;;;41.17;;
75218;SDS011;63801;49.414;19.474;2022-12-19T01:59:36;140.63;;;37.45;;
75218;SDS011;63801;49.414;19.474;2022-12-19T02:01:41;144.85;;;40.65;;
75218;SDS011;63801;49.414;19.474;2022-12-19T02:03:42;190.38;;;59.55;;
75218;SDS011;63801;49.414;19.474;2022-12-19T02:05:43;152.95;;;42.08;;
75218;SDS011;63801;49.414;19.474;2022-12-19T02:07:44;145.73;;;34.60;;
75218;SDS011;63801;49.414;19.474;2022-12-19T02:09:45;174.45;;;39.30;;
75218;SDS011;63801;49.414;19.474;2022-12-19T02:11:48;253.15;;;50.85;;
75218;SDS011;63801;49.414;19.474;2022-12-19T02:13:48;282.15;;;57.47;;
75218;SDS011;63801;49.414;19.474;2022-12-19T02:15:58;191.63;;;43.38;;
75218;SDS011;63801;49.414;19.474;2022-12-19T02:34:25;261.63;;;55.43;;
75218;SDS011;63801;49.414;19.474;2022-12-19T02:38:40;228.50;;;55.70;;
75218;SDS011;63801;49.414;19.474;2022-12-19T02:41:10;196.30;;;47.72;;
75218;SDS011;63801;49.414;19.474;2022-12-19T02:43:20;178.80;;;41.13;;
75218;SDS011;63801;49.414;19.474;2022-12-19T02:45:22;155.00;;;38.20;;
75218;SDS011;63801;49.414;19.474;2022-12-19T02:47:28;120.85;;;36.28;;
75218;SDS011;63801;49.414;19.474;2022-12-19T02:49:34;107.63;;;32.08;;
75218;SDS011;63801;49.414;19.474;2022-12-19T02:51:36;97.18;;;29.33;;
75218;SDS011;63801;49.414;19.474;2022-12-19T02:53:36;108.60;;;30.85;;
75218;SDS011;63801;49.414;19.474;2022-12-19T02:58:08;138.32;;;37.75;;
75218;SDS011;63801;49.414;19.474;2022-12-19T03:00:25;156.48;;;37.60;;
75218;SDS011;63801;49.414;19.474;2022-12-19T03:02:34;258.63;;;43.75;;
75218;SDS011;63801;49.414;19.474;2022-12-19T03:04:47;316.25;;;48.28;;
75218;SDS011;63801;49.414;19.474;2022-12-19T03:07:22;364.20;;;51.15;;
75218;SDS011;63801;49.414;19.474;2022-12-19T03:09:45;249.68;;;40.88;;
75218;SDS011;63801;49.414;19.474;2022-12-19T03:11:48;298.13;;;43.28;;
75218;SDS011;63801;49.414;19.474;2022-12-19T03:13:56;238.40;;;46.17;;
75218;SDS011;63801;49.414;19.474;2022-12-19T03:16:06;304.90;;;44.90;;
75218;SDS011;63801;49.414;19.474;2022-12-19T03:18:09;357.17;;;47.00;;
75218;SDS011;63801;49.414;19.474;2022-12-19T03:20:21;299.02;;;43.97;;
75218;SDS011;63801;49.414;19.474;2022-12-19T03:22:24;334.83;;;50.72;;
75218;SDS011;63801;49.414;19.474;2022-12-19T03:24:24;263.73;;;39.60;;
75218;SDS011;63801;49.414;19.474;2022-12-19T03:26:27;270.45;;;44.78;;
75218;SDS011;63801;49.414;19.474;2022-12-19T03:28:35;279.05;;;43.53;;
75218;SDS011;63801;49.414;19.474;2022-12-19T03:30:49;216.10;;;40.67;;
75218;SDS011;63801;49.414;19.474;2022-12-19T03:32:51;373.20;;;47.47;;
75218;SDS011;63801;49.414;19.474;2022-12-19T03:34:55;332.45;;;43.28;;
75218;SDS011;63801;49.414;19.474;2022-12-19T03:37:01;288.40;;;44.65;;
75218;SDS011;63801;49.414;19.474;2022-12-19T03:39:04;350.70;;;47.97;;
75218;SDS011;63801;49.414;19.474;2022-12-19T03:41:08;333.90;;;43.47;;
75218;SDS011;63801;49.414;19.474;2022-12-19T03:43:11;261.35;;;44.38;;
75218;SDS011;63801;49.414;19.474;2022-12-19T03:45:17;424.25;;;48.67;;
75218;SDS011;63801;49.414;19.474;2022-12-19T03:47:27;395.10;;;47.25;;
75218;SDS011;63801;49.414;19.474;2022-12-19T03:49:32;431.98;;;50.78;;
75218;SDS011;63801;49.414;19.474;2022-12-19T03:51:40;308.35;;;50.33;;
75218;SDS011;63801;49.414;19.474;2022-12-19T03:56:22;432.85;;;51.42;;
75218;SDS011;63801;49.414;19.474;2022-12-19T03:58:28;351.35;;;45.80;;
75218;SDS011;63801;49.414;19.474;2022-12-19T04:00:34;370.38;;;46.72;;
75218;SDS011;63801;49.414;19.474;2022-12-19T04:02:36;344.13;;;45.90;;
75218;SDS011;63801;49.414;19.474;2022-12-19T04:04:39;386.23;;;47.95;;
75218;SDS011;63801;49.414;19.474;2022-12-19T04:06:43;303.52;;;44.28;;
75218;SDS011;63801;49.414;19.474;2022-12-19T04:08:44;392.55;;;45.60;;
75218;SDS011;63801;49.414;19.474;2022-12-19T04:10:49;287.70;;;43.90;;
75218;SDS011;63801;49.414;19.474;2022-12-19T04:12:53;300.02;;;45.30;;
75218;SDS011;63801;49.414;19.474;2022-12-19T04:14:59;401.50;;;47.00;;
75218;SDS011;63801;49.414;19.474;2022-12-19T04:21:50;262.05;;;40.17;;
75218;SDS011;63801;49.414;19.474;2022-12-19T04:24:00;366.45;;;47.05;;
75218;SDS011;63801;49.414;19.474;2022-12-19T04:26:05;290.73;;;46.70;;
75218;SDS011;63801;49.414;19.474;2022-12-19T04:28:16;312.55;;;48.45;;
75218;SDS011;63801;49.414;19.474;2022-12-19T04:30:21;284.60;;;46.00;;
75218;SDS011;63801;49.414;19.474;2022-12-19T04:32:22;350.80;;;48.30;;
75218;SDS011;63801;49.414;19.474;2022-12-19T04:34:24;327.80;;;47.97;;
75218;SDS011;63801;49.414;19.474;2022-12-19T04:36:24;271.15;;;46.05;;
75218;SDS011;63801;49.414;19.474;2022-12-19T04:38:25;223.43;;;45.95;;
75218;SDS011;63801;49.414;19.474;2022-12-19T04:40:26;264.23;;;46.53;;
75218;SDS011;63801;49.414;19.474;2022-12-19T04:42:26;277.35;;;45.35;;
75218;SDS011;63801;49.414;19.474;2022-12-19T04:44:27;232.32;;;42.97;;
75218;SDS011;63801;49.414;19.474;2022-12-19T04:46:27;220.65;;;40.35;;
75218;SDS011;63801;49.414;19.474;2022-12-19T04:48:27;302.75;;;41.72;;
75218;SDS011;63801;49.414;19.474;2022-12-19T04:50:28;292.40;;;41.10;;
75218;SDS011;63801;49.414;19.474;2022-12-19T04:52:28;304.23;;;42.35;;
75218;SDS011;63801;49.414;19.474;2022-12-19T04:54:28;365.60;;;45.22;;
75218;SDS011;63801;49.414;19.474;2022-12-19T04:56:29;256.70;;;44.47;;
75218;SDS011;63801;49.414;19.474;2022-12-19T04:58:29;311.00;;;45.67;;
75218;SDS011;63801;49.414;19.474;2022-12-19T05:00:29;319.73;;;45.10;;
75218;SDS011;63801;49.414;19.474;2022-12-19T05:02:30;314.52;;;44.13;;
75218;SDS011;63801;49.414;19.474;2022-12-19T05:04:31;300.75;;;43.05;;
75218;SDS011;63801;49.414;19.474;2022-12-19T05:06:31;208.32;;;39.20;;
75218;SDS011;63801;49.414;19.474;2022-12-19T05:08:31;275.90;;;40.05;;
75218;SDS011;63801;49.414;19.474;2022-12-19T05:10:32;219.73;;;38.22;;
75218;SDS011;63801;49.414;19.474;2022-12-19T05:12:33;248.48;;;40.83;;
75218;SDS011;63801;49.414;19.474;2022-12-19T05:14:33;229.25;;;42.00;;
75218;SDS011;63801;49.414;19.474;2022-12-19T05:16:33;255.30;;;40.15;;
75218;SDS011;63801;49.414;19.474;2022-12-19T05:18:34;214.70;;;42.42;;
75218;SDS011;63801;49.414;19.474;2022-12-19T05:20:35;216.40;;;41.47;;
75218;SDS011;63801;49.414;19.474;2022-12-19T05:22:36;177.43;;;40.53;;
75218;SDS011;63801;49.414;19.474;2022-12-19T05:24:36;229.32;;;40.17;;
75218;SDS011;63801;49.414;19.474;2022-12-19T05:26:36;301.20;;;41.38;;
75218;SDS011;63801;49.414;19.474;2022-12-19T05:28:37;322.42;;;42.38;;
75218;SDS011;63801;49.414;19.474;2022-12-19T05:30:37;341.45;;;43.75;;
75218;SDS011;63801;49.414;19.474;2022-12-19T05:32:38;335.48;;;44.22;;
75218;SDS011;63801;49.414;19.474;2022-12-19T05:34:38;196.43;;;38.63;;
75218;SDS011;63801;49.414;19.474;2022-12-19T05:36:38;223.55;;;40.40;;
75218;SDS011;63801;49.414;19.474;2022-12-19T05:38:39;310.70;;;41.22;;
75218;SDS011;63801;49.414;19.474;2022-12-19T05:40:42;337.00;;;43.38;;
75218;SDS011;63801;49.414;19.474;2022-12-19T05:42:42;316.88;;;42.65;;
75218;SDS011;63801;49.414;19.474;2022-12-19T05:44:43;259.33;;;40.55;;
75218;SDS011;63801;49.414;19.474;2022-12-19T05:46:43;255.07;;;43.15;;
75218;SDS011;63801;49.414;19.474;2022-12-19T05:48:44;259.27;;;41.88;;
75218;SDS011;63801;49.414;19.474;2022-12-19T05:50:48;214.05;;;38.05;;
75218;SDS011;63801;49.414;19.474;2022-12-19T05:52:49;216.93;;;40.35;;
75218;SDS011;63801;49.414;19.474;2022-12-19T05:54:49;252.25;;;40.70;;
75218;SDS011;63801;49.414;19.474;2022-12-19T05:56:50;192.55;;;37.30;;
75218;SDS011;63801;49.414;19.474;2022-12-19T05:58:50;143.60;;;39.83;;
75218;SDS011;63801;49.414;19.474;2022-12-19T06:00:50;208.60;;;37.92;;
75218;SDS011;63801;49.414;19.474;2022-12-19T06:02:51;180.52;;;36.63;;
75218;SDS011;63801;49.414;19.474;2022-12-19T06:04:51;130.52;;;34.30;;
75218;SDS011;63801;49.414;19.474;2022-12-19T06:06:52;170.40;;;36.78;;
75218;SDS011;63801;49.414;19.474;2022-12-19T06:08:53;130.48;;;35.20;;
75218;SDS011;63801;49.414;19.474;2022-12-19T06:10:56;111.90;;;36.33;;
75218;SDS011;63801;49.414;19.474;2022-12-19T06:12:58;106.13;;;34.03;;
75218;SDS011;63801;49.414;19.474;2022-12-19T06:14:58;131.38;;;37.70;;
75218;SDS011;63801;49.414;19.474;2022-12-19T06:16:59;111.25;;;33.67;;
75218;SDS011;63801;49.414;19.474;2022-12-19T06:19:00;154.52;;;35.47;;
75218;SDS011;63801;49.414;19.474;2022-12-19T06:21:04;182.80;;;36.80;;
75218;SDS011;63801;49.414;19.474;2022-12-19T06:23:06;175.52;;;39.35;;
75218;SDS011;63801;49.414;19.474;2022-12-19T06:25:06;223.35;;;38.10;;
75218;SDS011;63801;49.414;19.474;2022-12-19T06:27:07;285.77;;;43.47;;
75218;SDS011;63801;49.414;19.474;2022-12-19T06:29:07;234.27;;;44.15;;
75218;SDS011;63801;49.414;19.474;2022-12-19T06:31:08;312.83;;;44.13;;
75218;SDS011;63801;49.414;19.474;2022-12-19T06:33:10;310.90;;;46.00;;
75218;SDS011;63801;49.414;19.474;2022-12-19T06:35:11;330.60;;;56.90;;
75218;SDS011;63801;49.414;19.474;2022-12-19T06:37:11;444.92;;;102.15;;
75218;SDS011;63801;49.414;19.474;2022-12-19T06:39:11;387.88;;;91.30;;
75218;SDS011;63801;49.414;19.474;2022-12-19T06:41:14;329.17;;;67.40;;
75218;SDS011;63801;49.414;19.474;2022-12-19T06:43:33;308.67;;;55.15;;
75218;SDS011;63801;49.414;19.474;2022-12-19T06:45:34;220.30;;;47.60;;
75218;SDS011;63801;49.414;19.474;2022-12-19T06:47:34;382.90;;;78.82;;
75218;SDS011;63801;49.414;19.474;2022-12-19T06:49:34;297.95;;;61.30;;
75218;SDS011;63801;49.414;19.474;2022-12-19T06:51:35;327.55;;;62.95;;
75218;SDS011;63801;49.414;19.474;2022-12-19T06:53:35;424.25;;;105.93;;
75218;SDS011;63801;49.414;19.474;2022-12-19T06:55:36;349.45;;;62.05;;
75218;SDS011;63801;49.414;19.474;2022-12-19T06:57:36;444.02;;;129.02;;
75218;SDS011;63801;49.414;19.474;2022-12-19T06:59:36;314.10;;;83.50;;
75218;SDS011;63801;49.414;19.474;2022-12-19T07:03:52;405.67;;;110.20;;
75218;SDS011;63801;49.414;19.474;2022-12-19T07:05:53;402.10;;;107.82;;
75218;SDS011;63801;49.414;19.474;2022-12-19T07:07:54;473.92;;;124.57;;
75218;SDS011;63801;49.414;19.474;2022-12-19T07:09:54;387.55;;;86.65;;
75218;SDS011;63801;49.414;19.474;2022-12-19T07:11:55;291.67;;;56.00;;
75218;SDS011;63801;49.414;19.474;2022-12-19T07:13:55;406.35;;;115.65;;
75218;SDS011;63801;49.414;19.474;2022-12-19T07:15:59;280.80;;;52.60;;
75218;SDS011;63801;49.414;19.474;2022-12-19T07:18:01;316.88;;;58.42;;
75218;SDS011;63801;49.414;19.474;2022-12-19T07:20:04;361.60;;;85.20;;
75218;SDS011;63801;49.414;19.474;2022-12-19T07:22:05;383.75;;;88.47;;
75218;SDS011;63801;49.414;19.474;2022-12-19T07:24:06;226.65;;;56.00;;
75218;SDS011;63801;49.414;19.474;2022-12-19T07:26:07;329.25;;;86.22;;
75218;SDS011;63801;49.414;19.474;2022-12-19T07:28:08;311.25;;;69.85;;
75218;SDS011;63801;49.414;19.474;2022-12-19T07:30:08;349.70;;;66.70;;
75218;SDS011;63801;49.414;19.474;2022-12-19T07:32:09;253.25;;;59.05;;
75218;SDS011;63801;49.414;19.474;2022-12-19T07:34:10;324.63;;;61.33;;
75218;SDS011;63801;49.414;19.474;2022-12-19T07:36:10;306.52;;;70.53;;
75218;SDS011;63801;49.414;19.474;2022-12-19T07:38:10;292.75;;;63.72;;
75218;SDS011;63801;49.414;19.474;2022-12-19T07:40:11;308.05;;;72.30;;
75218;SDS011;63801;49.414;19.474;2022-12-19T07:42:11;296.73;;;64.72;;
75218;SDS011;63801;49.414;19.474;2022-12-19T07:44:12;241.95;;;57.28;;
75218;SDS011;63801;49.414;19.474;2022-12-19T07:46:14;257.23;;;69.55;;
75218;SDS011;63801;49.414;19.474;2022-12-19T07:48:15;244.48;;;67.82;;
75218;SDS011;63801;49.414;19.474;2022-12-19T07:50:15;191.45;;;53.65;;
75218;SDS011;63801;49.414;19.474;2022-12-19T07:52:15;198.63;;;53.67;;
75218;SDS011;63801;49.414;19.474;2022-12-19T07:54:16;250.65;;;90.85;;
75218;SDS011;63801;49.414;19.474;2022-12-19T07:56:16;231.88;;;70.35;;
75218;SDS011;63801;49.414;19.474;2022-12-19T07:58:16;218.55;;;69.47;;
75218;SDS011;63801;49.414;19.474;2022-12-19T08:00:17;181.00;;;55.17;;
75218;SDS011;63801;49.414;19.474;2022-12-19T08:02:17;198.05;;;55.67;;
75218;SDS011;63801;49.414;19.474;2022-12-19T08:04:18;257.50;;;84.93;;
75218;SDS011;63801;49.414;19.474;2022-12-19T08:06:18;160.50;;;47.47;;
75218;SDS011;63801;49.414;19.474;2022-12-19T08:08:19;182.88;;;49.88;;
75218;SDS011;63801;49.414;19.474;2022-12-19T08:10:20;223.45;;;65.43;;
75218;SDS011;63801;49.414;19.474;2022-12-19T08:12:21;182.88;;;50.40;;
75218;SDS011;63801;49.414;19.474;2022-12-19T08:14:22;179.25;;;50.55;;
75218;SDS011;63801;49.414;19.474;2022-12-19T08:16:23;196.10;;;68.22;;
75218;SDS011;63801;49.414;19.474;2022-12-19T08:18:25;169.73;;;47.75;;
75218;SDS011;63801;49.414;19.474;2022-12-19T08:20:26;157.75;;;48.17;;
75218;SDS011;63801;49.414;19.474;2022-12-19T08:22:27;164.20;;;48.63;;
75218;SDS011;63801;49.414;19.474;2022-12-19T08:24:29;152.15;;;47.22;;
75218;SDS011;63801;49.414;19.474;2022-12-19T08:26:29;208.30;;;67.60;;
75218;SDS011;63801;49.414;19.474;2022-12-19T08:28:31;338.25;;;126.88;;
75218;SDS011;63801;49.414;19.474;2022-12-19T08:30:32;175.75;;;57.72;;
75218;SDS011;63801;49.414;19.474;2022-12-19T08:32:32;214.50;;;66.88;;
75218;SDS011;63801;49.414;19.474;2022-12-19T08:34:34;165.20;;;54.88;;
75218;SDS011;63801;49.414;19.474;2022-12-19T08:36:34;142.95;;;46.95;;
75218;SDS011;63801;49.414;19.474;2022-12-19T08:38:35;156.90;;;50.58;;
75218;SDS011;63801;49.414;19.474;2022-12-19T08:40:36;183.88;;;61.15;;
75218;SDS011;63801;49.414;19.474;2022-12-19T08:42:36;211.35;;;74.20;;
75218;SDS011;63801;49.414;19.474;2022-12-19T08:44:36;183.50;;;61.28;;
75218;SDS011;63801;49.414;19.474;2022-12-19T08:46:37;150.63;;;56.53;;
75218;SDS011;63801;49.414;19.474;2022-12-19T08:48:37;147.10;;;52.58;;
75218;SDS011;63801;49.414;19.474;2022-12-19T08:50:37;181.90;;;65.82;;
75218;SDS011;63801;49.414;19.474;2022-12-19T08:52:38;182.00;;;58.35;;
75218;SDS011;63801;49.414;19.474;2022-12-19T08:54:38;203.30;;;68.47;;
75218;SDS011;63801;49.414;19.474;2022-12-19T08:56:38;144.55;;;53.30;;
75218;SDS011;63801;49.414;19.474;2022-12-19T08:58:39;153.07;;;55.28;;
75218;SDS011;63801;49.414;19.474;2022-12-19T09:00:40;119.35;;;49.78;;
75218;SDS011;63801;49.414;19.474;2022-12-19T09:02:40;146.57;;;56.80;;
75218;SDS011;63801;49.414;19.474;2022-12-19T09:04:40;144.60;;;57.28;;
75218;SDS011;63801;49.414;19.474;2022-12-19T09:06:41;120.45;;;47.03;;
75218;SDS011;63801;49.414;19.474;2022-12-19T09:08:41;126.13;;;48.22;;
75218;SDS011;63801;49.414;19.474;2022-12-19T09:10:42;122.28;;;49.15;;
75218;SDS011;63801;49.414;19.474;2022-12-19T09:12:42;111.65;;;45.95;;
75218;SDS011;63801;49.414;19.474;2022-12-19T09:14:43;104.65;;;42.15;;
75218;SDS011;63801;49.414;19.474;2022-12-19T09:16:44;126.72;;;50.75;;
75218;SDS011;63801;49.414;19.474;2022-12-19T09:18:45;151.57;;;54.55;;
75218;SDS011;63801;49.414;19.474;2022-12-19T09:20:46;144.88;;;61.47;;
75218;SDS011;63801;49.414;19.474;2022-12-19T09:22:47;164.80;;;69.38;;
75218;SDS011;63801;49.414;19.474;2022-12-19T09:24:47;221.98;;;94.07;;
75218;SDS011;63801;49.414;19.474;2022-12-19T09:26:48;393.00;;;208.20;;
75218;SDS011;63801;49.414;19.474;2022-12-19T09:28:48;127.15;;;53.03;;
75218;SDS011;63801;49.414;19.474;2022-12-19T09:30:56;122.30;;;49.80;;
75218;SDS011;63801;49.414;19.474;2022-12-19T09:32:58;124.50;;;50.47;;
75218;SDS011;63801;49.414;19.474;2022-12-19T09:34:58;100.65;;;45.35;;
75218;SDS011;63801;49.414;19.474;2022-12-19T09:36:59;119.05;;;48.75;;
75218;SDS011;63801;49.414;19.474;2022-12-19T09:38:59;107.05;;;45.67;;
75218;SDS011;63801;49.414;19.474;2022-12-19T09:43:06;147.18;;;82.80;;
75218;SDS011;63801;49.414;19.474;2022-12-19T09:47:38;165.15;;;90.25;;
75218;SDS011;63801;49.414;19.474;2022-12-19T09:49:43;105.50;;;46.78;;
75218;SDS011;63801;49.414;19.474;2022-12-19T09:54:04;143.88;;;71.88;;
75218;SDS011;63801;49.414;19.474;2022-12-19T09:56:13;124.13;;;54.75;;
75218;SDS011;63801;49.414;19.474;2022-12-19T10:00:44;139.77;;;55.40;;
75218;SDS011;63801;49.414;19.474;2022-12-19T10:02:49;146.38;;;57.63;;
75218;SDS011;63801;49.414;19.474;2022-12-19T10:07:25;230.38;;;83.70;;
75218;SDS011;63801;49.414;19.474;2022-12-19T10:09:29;131.23;;;52.70;;
75218;SDS011;63801;49.414;19.474;2022-12-19T10:14:06;124.88;;;58.55;;
75218;SDS011;63801;49.414;19.474;2022-12-19T10:20:52;214.45;;;96.95;;
75218;SDS011;63801;49.414;19.474;2022-12-19T10:25:49;262.58;;;110.95;;
75218;SDS011;63801;49.414;19.474;2022-12-19T10:30:35;308.23;;;131.73;;
75218;SDS011;63801;49.414;19.474;2022-12-19T10:34:50;274.98;;;111.38;;
75218;SDS011;63801;49.414;19.474;2022-12-19T10:36:53;257.17;;;104.10;;
75218;SDS011;63801;49.414;19.474;2022-12-19T10:41:13;216.93;;;83.88;;
75218;SDS011;63801;49.414;19.474;2022-12-19T10:45:21;220.68;;;81.97;;
75218;SDS011;63801;49.414;19.474;2022-12-19T10:47:22;222.70;;;86.05;;
75218;SDS011;63801;49.414;19.474;2022-12-19T10:49:26;224.25;;;88.50;;
75218;SDS011;63801;49.414;19.474;2022-12-19T10:51:27;273.70;;;112.68;;
75218;SDS011;63801;49.414;19.474;2022-12-19T10:53:30;258.90;;;102.80;;
75218;SDS011;63801;49.414;19.474;2022-12-19T10:57:56;260.90;;;100.70;;
75218;SDS011;63801;49.414;19.474;2022-12-19T11:00:05;285.38;;;109.88;;
75218;SDS011;63801;49.414;19.474;2022-12-19T11:02:21;274.33;;;107.50;;
75218;SDS011;63801;49.414;19.474;2022-12-19T11:04:32;247.50;;;96.93;;
75218;SDS011;63801;49.414;19.474;2022-12-19T11:06:39;337.10;;;126.20;;
75218;SDS011;63801;49.414;19.474;2022-12-19T11:08:51;281.52;;;112.07;;
75218;SDS011;63801;49.414;19.474;2022-12-19T11:10:55;287.20;;;104.45;;
75218;SDS011;63801;49.414;19.474;2022-12-19T11:13:19;290.90;;;104.65;;
75218;SDS011;63801;49.414;19.474;2022-12-19T11:15:19;340.42;;;129.48;;
75218;SDS011;63801;49.414;19.474;2022-12-19T11:19:33;309.08;;;114.07;;
75218;SDS011;63801;49.414;19.474;2022-12-19T11:21:37;388.40;;;143.65;;
75218;SDS011;63801;49.414;19.474;2022-12-19T11:25:53;373.63;;;128.10;;
75218;SDS011;63801;49.414;19.474;2022-12-19T11:27:56;349.10;;;123.05;;
75218;SDS011;63801;49.414;19.474;2022-12-19T11:29:57;335.27;;;126.95;;
75218;SDS011;63801;49.414;19.474;2022-12-19T11:32:00;167.82;;;60.30;;
75218;SDS011;63801;49.414;19.474;2022-12-19T11:34:03;36.22;;;14.80;;
75218;SDS011;63801;49.414;19.474;2022-12-19T11:36:05;112.80;;;35.25;;
75218;SDS011;63801;49.414;19.474;2022-12-19T11:38:07;31.08;;;11.90;;
75218;SDS011;63801;49.414;19.474;2022-12-19T11:40:14;74.05;;;25.05;;
75218;SDS011;63801;49.414;19.474;2022-12-19T11:42:23;9.70;;;3.67;;
75218;SDS011;63801;49.414;19.474;2022-12-19T11:44:29;13.88;;;6.07;;
75218;SDS011;63801;49.414;19.474;2022-12-19T11:48:49;7.43;;;4.00;;
75218;SDS011;63801;49.414;19.474;2022-12-19T11:58:09;7.35;;;3.63;;
75218;SDS011;63801;49.414;19.474;2022-12-19T12:00:11;8.70;;;3.75;;
75218;SDS011;63801;49.414;19.474;2022-12-19T12:04:59;8.77;;;3.33;;
75218;SDS011;63801;49.414;19.474;2022-12-19T12:07:17;6.35;;;3.03;;
75218;SDS011;63801;49.414;19.474;2022-12-19T12:12:01;14.07;;;4.32;;
75218;SDS011;63801;49.414;19.474;2022-12-19T12:21:30;8.02;;;2.70;;
75218;SDS011;63801;49.414;19.474;2022-12-19T12:23:42;5.47;;;2.30;;
75218;SDS011;63801;49.414;19.474;2022-12-19T12:28:22;8.10;;;3.90;;
75218;SDS011;63801;49.414;19.474;2022-12-19T12:30:38;8.02;;;3.08;;
75218;SDS011;63801;49.414;19.474;2022-12-19T12:37:03;7.00;;;3.05;;
75218;SDS011;63801;49.414;19.474;2022-12-19T12:39:17;9.68;;;3.15;;
75218;SDS011;63801;49.414;19.474;2022-12-19T12:45:49;8.52;;;3.35;;
75218;SDS011;63801;49.414;19.474;2022-12-19T12:47:50;7.82;;;2.92;;
75218;SDS011;63801;49.414;19.474;2022-12-19T12:50:01;6.28;;;2.92;;
75218;SDS011;63801;49.414;19.474;2022-12-19T12:52:06;8.18;;;3.20;;
75218;SDS011;63801;49.414;19.474;2022-12-19T12:54:11;7.15;;;3.42;;
75218;SDS011;63801;49.414;19.474;2022-12-19T12:56:15;6.68;;;3.17;;
75218;SDS011;63801;49.414;19.474;2022-12-19T13:01:01;7.00;;;3.15;;
75218;SDS011;63801;49.414;19.474;2022-12-19T13:03:17;11.45;;;3.90;;
75218;SDS011;63801;49.414;19.474;2022-12-19T13:07:40;7.88;;;3.33;;
75218;SDS011;63801;49.414;19.474;2022-12-19T13:09:42;16.88;;;4.82;;
75218;SDS011;63801;49.414;19.474;2022-12-19T13:18:42;8.10;;;2.90;;
75218;SDS011;63801;49.414;19.474;2022-12-19T13:21:11;7.82;;;2.92;;
75218;SDS011;63801;49.414;19.474;2022-12-19T13:27:37;8.93;;;3.65;;
75218;SDS011;63801;49.414;19.474;2022-12-19T13:29:52;10.93;;;3.47;;
75218;SDS011;63801;49.414;19.474;2022-12-19T13:32:08;8.30;;;3.67;;
75218;SDS011;63801;49.414;19.474;2022-12-19T13:34:15;7.50;;;3.38;;
75218;SDS011;63801;49.414;19.474;2022-12-19T13:38:52;10.20;;;3.38;;
75218;SDS011;63801;49.414;19.474;2022-12-19T13:40:59;9.65;;;3.95;;
75218;SDS011;63801;49.414;19.474;2022-12-19T13:45:23;6.80;;;2.40;;
75218;SDS011;63801;49.414;19.474;2022-12-19T13:47:29;8.15;;;3.17;;
75218;SDS011;63801;49.414;19.474;2022-12-19T13:49:33;8.55;;;3.78;;